createdAt,value
2023-10-20T00:02:26.638Z,7.50
2023-10-20T00:04:53.350Z,7.60
2023-10-20T00:07:21.231Z,7.60
2023-10-20T00:09:48.037Z,7.50
2023-10-20T00:12:14.895Z,7.50
2023-10-20T00:14:41.572Z,7.50
2023-10-20T00:17:08.322Z,7.50
2023-10-20T00:19:35.054Z,7.50
2023-10-20T00:22:01.683Z,7.60
2023-10-20T00:24:28.363Z,7.50
2023-10-20T00:26:55.023Z,7.50
2023-10-20T00:29:21.709Z,7.50
2023-10-20T00:31:48.812Z,7.50
2023-10-20T00:34:15.476Z,7.50
2023-10-20T00:36:42.153Z,7.50
2023-10-20T00:39:09.083Z,7.50
2023-10-20T00:41:36.975Z,7.50
2023-10-20T00:44:04.480Z,7.50
2023-10-20T00:46:31.766Z,7.50
2023-10-20T00:48:58.491Z,7.50
2023-10-20T00:51:28.152Z,7.50
2023-10-20T00:53:56.491Z,7.50
2023-10-20T00:56:23.514Z,7.50
2023-10-20T00:58:50.167Z,7.60
2023-10-20T01:01:24.574Z,7.60
2023-10-20T01:03:51.412Z,7.50
2023-10-20T01:06:18.154Z,7.60
2023-10-20T01:08:45.060Z,7.50
2023-10-20T01:11:11.863Z,7.60
2023-10-20T01:13:38.619Z,7.50
2023-10-20T01:16:05.585Z,7.50
2023-10-20T01:18:32.252Z,7.60
2023-10-20T01:20:59.402Z,7.60
2023-10-20T01:23:26.088Z,7.60
2023-10-20T01:25:59.026Z,7.60
2023-10-20T01:28:25.936Z,7.60
2023-10-20T01:30:53.435Z,7.60
2023-10-20T01:33:20.509Z,7.60
2023-10-20T01:35:47.700Z,7.60
2023-10-20T01:38:14.399Z,7.60
2023-10-20T01:40:41.179Z,7.60
2023-10-20T01:43:07.808Z,7.60
2023-10-20T01:45:35.112Z,7.60
2023-10-20T01:48:02.201Z,7.60
2023-10-20T01:50:29.168Z,7.60
2023-10-20T01:52:56.163Z,7.60
2023-10-20T01:55:22.970Z,7.60
2023-10-20T01:57:49.746Z,7.60
2023-10-20T02:00:18.202Z,7.60
2023-10-20T02:02:45.256Z,7.60
2023-10-20T02:05:13.625Z,7.60
2023-10-20T02:07:40.635Z,7.60
2023-10-20T02:10:09.451Z,7.60
2023-10-20T02:12:36.333Z,7.60
2023-10-20T02:15:04.987Z,7.60
2023-10-20T02:17:34.748Z,7.70
2023-10-20T02:20:02.942Z,7.60
2023-10-20T02:22:30.637Z,7.60
2023-10-20T02:24:57.371Z,7.60
2023-10-20T02:27:24.254Z,7.60
2023-10-20T02:29:50.962Z,7.60
2023-10-20T02:32:17.799Z,7.70
2023-10-20T02:34:47.504Z,7.60
2023-10-20T02:37:16.192Z,7.60
2023-10-20T02:39:43.614Z,7.60
2023-10-20T02:42:10.413Z,7.60
2023-10-20T02:44:38.485Z,7.60
2023-10-20T02:47:05.324Z,7.50
2023-10-20T02:49:32.203Z,7.50
2023-10-20T02:51:58.991Z,7.50
2023-10-20T02:54:25.958Z,7.50
2023-10-20T02:56:52.747Z,7.50
2023-10-20T02:59:22.705Z,7.50
2023-10-20T03:01:49.429Z,7.50
2023-10-20T03:04:16.252Z,7.40
2023-10-20T03:06:43.099Z,7.40
2023-10-20T03:09:09.926Z,7.40
2023-10-20T03:11:36.813Z,7.50
2023-10-20T03:14:03.658Z,7.50
2023-10-20T03:16:30.570Z,7.40
2023-10-20T03:18:57.548Z,7.40
2023-10-20T03:21:24.706Z,7.40
2023-10-20T03:23:51.445Z,7.30
2023-10-20T03:26:18.636Z,7.30
2023-10-20T03:28:45.626Z,7.30
2023-10-20T03:31:12.673Z,7.30
2023-10-20T03:33:42.083Z,7.20
2023-10-20T03:36:09.720Z,7.20
2023-10-20T03:38:36.516Z,7.20
2023-10-20T03:41:07.501Z,7.20
2023-10-20T03:43:37.201Z,7.20
2023-10-20T03:46:05.600Z,7.30
2023-10-20T03:48:34.960Z,7.20
2023-10-20T03:51:02.114Z,7.20
2023-10-20T03:53:30.070Z,7.20
2023-10-20T03:56:00.687Z,7.30
2023-10-20T03:58:30.593Z,7.20
2023-10-20T04:01:01.288Z,7.20
2023-10-20T04:03:28.206Z,7.20
2023-10-20T04:05:55.153Z,7.20
2023-10-20T04:08:22.447Z,7.20
2023-10-20T04:10:58.779Z,7.20
2023-10-20T04:13:25.792Z,7.20
2023-10-20T04:15:55.466Z,7.20
2023-10-20T04:18:23.837Z,7.20
2023-10-20T04:20:50.844Z,7.10
2023-10-20T04:23:18.107Z,7.10
2023-10-20T04:25:54.982Z,7.10
2023-10-20T04:28:38.329Z,7.10
2023-10-20T04:31:26.329Z,7.10
2023-10-20T04:34:11.974Z,7.10
2023-10-20T04:37:00.805Z,7.00
2023-10-20T04:39:46.218Z,7.10
2023-10-20T04:42:41.342Z,7.00
2023-10-20T04:45:17.238Z,7.00
2023-10-20T04:48:04.426Z,7.00
2023-10-20T04:51:09.228Z,7.00
2023-10-20T04:53:36.245Z,6.90
2023-10-20T04:56:18.268Z,6.90
2023-10-20T04:59:01.386Z,6.90
2023-10-20T05:01:31.794Z,7.00
2023-10-20T05:04:12.192Z,7.00
2023-10-20T05:06:45.911Z,7.00
2023-10-20T05:09:15.797Z,7.00
2023-10-20T05:11:43.086Z,7.00
2023-10-20T05:14:10.961Z,7.00
2023-10-20T05:16:38.033Z,6.90
2023-10-20T05:19:05.576Z,6.90
2023-10-20T05:21:39.450Z,6.90
2023-10-20T05:24:10.056Z,6.90
2023-10-20T05:26:37.089Z,6.90
2023-10-20T05:29:04.073Z,6.90
2023-10-20T05:31:33.867Z,6.90
2023-10-20T05:34:00.851Z,6.90
2023-10-20T05:36:27.615Z,6.90
2023-10-20T05:38:54.337Z,6.80
2023-10-20T05:41:21.382Z,6.80
2023-10-20T05:43:48.170Z,6.80
2023-10-20T05:46:19.260Z,6.80
2023-10-20T05:48:47.243Z,6.80
2023-10-20T05:51:17.318Z,6.80
2023-10-20T05:53:44.357Z,6.80
2023-10-20T05:56:12.006Z,6.80
2023-10-20T05:58:39.645Z,6.80
2023-10-20T06:01:07.386Z,6.80
2023-10-20T06:03:34.532Z,6.80
2023-10-20T06:06:01.948Z,6.80
2023-10-20T06:08:31.853Z,6.80
2023-10-20T06:11:03.665Z,6.80
2023-10-20T06:13:35.519Z,6.80
2023-10-20T06:16:12.492Z,6.80
2023-10-20T06:18:40.177Z,6.70
2023-10-20T06:21:08.137Z,6.80
2023-10-20T06:23:34.956Z,6.80
2023-10-20T06:26:01.764Z,6.70
2023-10-20T06:28:28.506Z,6.80
2023-10-20T06:30:58.638Z,6.70
2023-10-20T06:33:30.206Z,6.70
2023-10-20T06:36:03.745Z,6.80
2023-10-20T06:38:45.694Z,6.70
2023-10-20T06:41:14.428Z,6.70
2023-10-20T06:43:41.235Z,6.70
2023-10-20T06:46:07.917Z,6.80
2023-10-20T06:48:34.654Z,6.70
2023-10-20T06:51:01.371Z,6.70
2023-10-20T06:53:29.727Z,6.70
2023-10-20T06:56:16.081Z,6.70
2023-10-20T06:58:44.437Z,6.70
2023-10-20T07:01:11.147Z,6.70
2023-10-20T07:03:37.959Z,6.70
2023-10-20T07:06:08.476Z,6.70
2023-10-20T07:08:35.386Z,6.70
2023-10-20T07:11:03.309Z,6.70
2023-10-20T07:13:29.985Z,6.70
2023-10-20T07:15:58.282Z,6.70
2023-10-20T07:18:25.106Z,6.70
2023-10-20T07:20:58.087Z,6.70
2023-10-20T07:23:26.198Z,6.70
2023-10-20T07:25:54.064Z,6.60
2023-10-20T07:28:23.504Z,6.70
2023-10-20T07:30:50.817Z,6.70
2023-10-20T07:33:22.570Z,6.70
2023-10-20T07:35:49.238Z,6.70
2023-10-20T07:38:16.888Z,6.70
2023-10-20T07:40:43.608Z,6.70
2023-10-20T07:43:18.036Z,6.70
2023-10-20T07:45:44.920Z,6.70
2023-10-20T07:48:12.554Z,6.70
2023-10-20T07:50:39.630Z,6.70
2023-10-20T07:53:06.558Z,6.70
2023-10-20T07:55:33.329Z,6.60
2023-10-20T07:57:59.996Z,6.60
2023-10-20T08:00:26.682Z,6.60
2023-10-20T08:02:57.107Z,6.50
2023-10-20T08:05:27.755Z,6.50
2023-10-20T08:07:54.814Z,6.50
2023-10-20T08:10:22.852Z,6.50
2023-10-20T08:12:50.287Z,6.50
2023-10-20T08:15:17.370Z,6.50
2023-10-20T08:17:46.260Z,6.50
2023-10-20T08:20:13.739Z,6.50
2023-10-20T08:22:40.597Z,6.50
2023-10-20T08:25:08.166Z,6.50
2023-10-20T08:27:34.802Z,6.60
2023-10-20T08:30:06.040Z,6.60
2023-10-20T08:32:32.706Z,6.60
2023-10-20T08:34:59.950Z,6.60
2023-10-20T08:37:26.581Z,6.60
2023-10-20T08:39:55.414Z,6.60
2023-10-20T08:42:23.032Z,6.70
2023-10-20T08:44:50.865Z,6.70
2023-10-20T08:47:18.416Z,6.60
2023-10-20T08:49:45.963Z,6.60
2023-10-20T08:52:13.311Z,6.60
2023-10-20T08:54:40.333Z,6.60
2023-10-20T08:57:06.991Z,6.60
2023-10-20T08:59:33.916Z,6.60
2023-10-20T09:02:00.862Z,6.60
2023-10-20T09:04:28.219Z,6.60
2023-10-20T09:06:55.384Z,6.60
2023-10-20T09:09:22.041Z,6.60
2023-10-20T09:11:49.715Z,6.50
2023-10-20T09:14:16.794Z,6.60
2023-10-20T09:16:43.628Z,6.60
2023-10-20T09:19:13.197Z,6.60
2023-10-20T09:21:42.862Z,6.60
2023-10-20T09:24:10.607Z,6.70
2023-10-20T09:26:38.598Z,6.60
2023-10-20T09:29:10.878Z,6.70
2023-10-20T09:31:38.098Z,6.70
2023-10-20T09:34:08.643Z,6.70
2023-10-20T09:36:36.739Z,6.70
2023-10-20T09:39:06.475Z,6.70
2023-10-20T09:41:34.195Z,6.70
2023-10-20T09:44:07.423Z,6.70
2023-10-20T09:46:47.404Z,6.60
2023-10-20T09:49:27.458Z,6.70
2023-10-20T09:51:58.412Z,6.70
2023-10-20T09:54:44.002Z,6.70
2023-10-20T09:57:13.998Z,6.60
2023-10-20T09:59:40.949Z,6.60
2023-10-20T10:02:08.035Z,6.60
2023-10-20T10:04:40.417Z,6.60
2023-10-20T10:07:09.130Z,6.60
2023-10-20T10:09:40.001Z,6.70
2023-10-20T10:12:17.781Z,6.70
2023-10-20T10:15:00.347Z,6.70
2023-10-20T10:17:27.785Z,6.60
2023-10-20T10:19:56.147Z,6.60
2023-10-20T10:22:29.947Z,6.60
2023-10-20T10:24:57.569Z,6.60
2023-10-20T10:27:27.987Z,6.60
2023-10-20T10:29:54.850Z,6.60
2023-10-20T10:32:22.654Z,6.60
2023-10-20T10:34:50.648Z,6.60
2023-10-20T10:37:26.538Z,6.60
2023-10-20T10:39:53.171Z,6.70
2023-10-20T10:42:20.357Z,6.70
2023-10-20T10:44:47.058Z,6.70
2023-10-20T10:47:24.154Z,6.60
2023-10-20T10:49:51.999Z,6.60
2023-10-20T10:52:20.054Z,6.50
2023-10-20T10:54:46.843Z,6.60
2023-10-20T10:57:14.702Z,6.60
2023-10-20T10:59:41.573Z,6.60
2023-10-20T11:02:08.412Z,6.60
2023-10-20T11:04:35.371Z,6.50
2023-10-20T11:07:02.402Z,6.60
2023-10-20T11:09:30.718Z,6.50
2023-10-20T11:11:57.887Z,6.50
2023-10-20T11:14:25.737Z,6.50
2023-10-20T11:16:52.710Z,6.40
2023-10-20T11:19:19.540Z,6.40
2023-10-20T11:21:47.172Z,6.50
2023-10-20T11:24:25.482Z,6.50
2023-10-20T11:26:59.406Z,6.50
2023-10-20T11:29:27.245Z,6.40
2023-10-20T11:31:53.962Z,6.40
2023-10-20T11:34:20.656Z,6.40
2023-10-20T11:36:47.333Z,6.40
2023-10-20T11:39:16.322Z,6.40
2023-10-20T11:41:43.481Z,6.40
2023-10-20T11:44:10.219Z,6.40
2023-10-20T11:46:36.994Z,6.50
2023-10-20T11:49:03.660Z,6.50
2023-10-20T11:51:30.509Z,6.50
2023-10-20T11:53:57.221Z,6.40
2023-10-20T11:56:23.912Z,6.50
2023-10-20T11:58:50.624Z,6.50
2023-10-20T12:01:17.414Z,6.50
2023-10-20T12:03:44.181Z,6.40
2023-10-20T12:06:10.996Z,6.50
2023-10-20T12:08:37.793Z,6.40
2023-10-20T12:11:04.484Z,6.50
2023-10-20T12:13:31.142Z,6.50
2023-10-20T12:15:57.781Z,6.50
2023-10-20T12:18:24.535Z,6.50
2023-10-20T12:20:52.511Z,6.50
2023-10-20T12:23:19.968Z,6.50
2023-10-20T12:25:46.646Z,6.50
2023-10-20T12:28:13.257Z,6.50
2023-10-20T12:30:39.953Z,6.50
2023-10-20T12:33:22.099Z,6.60
2023-10-20T12:35:48.808Z,6.60
2023-10-20T12:38:17.586Z,6.60
2023-10-20T12:40:44.366Z,6.60
2023-10-20T12:43:13.080Z,6.70
2023-10-20T12:45:41.296Z,6.70
2023-10-20T12:48:39.130Z,6.70
2023-10-20T12:51:09.476Z,6.60
2023-10-20T12:53:36.389Z,6.60
2023-10-20T12:56:03.665Z,6.50
2023-10-20T12:58:30.373Z,6.50
2023-10-20T13:00:58.149Z,6.50
2023-10-20T13:03:25.453Z,6.50
2023-10-20T13:05:52.407Z,6.40
2023-10-20T13:08:19.854Z,6.40
2023-10-20T13:10:48.640Z,6.40
2023-10-20T13:13:17.722Z,6.40
2023-10-20T13:15:47.590Z,6.40
2023-10-20T13:18:36.956Z,6.40
2023-10-20T13:21:06.371Z,6.40
2023-10-20T13:23:33.280Z,6.40
2023-10-20T13:26:01.316Z,6.40
2023-10-20T13:28:28.005Z,6.40
2023-10-20T13:33:36.011Z,6.30
2023-10-20T13:36:09.127Z,6.30
2023-10-20T13:38:39.163Z,6.40
2023-10-20T13:41:06.773Z,6.30
2023-10-20T13:43:33.624Z,6.30
2023-10-20T13:46:00.535Z,6.20
2023-10-20T13:48:27.381Z,6.20
2023-10-20T13:50:54.378Z,6.20
2023-10-20T13:53:21.270Z,6.20
2023-10-20T13:55:48.832Z,6.20
2023-10-20T13:58:15.811Z,6.10
2023-10-20T14:00:42.486Z,6.10
2023-10-20T14:03:09.371Z,6.20
2023-10-20T14:05:36.455Z,6.20
2023-10-20T14:08:03.305Z,6.20
2023-10-20T14:10:30.388Z,6.10
2023-10-20T14:12:57.133Z,6.10
2023-10-20T14:15:24.253Z,6.10
2023-10-20T14:17:51.584Z,6.00
2023-10-20T14:20:18.663Z,6.00
2023-10-20T14:22:45.448Z,5.90
2023-10-20T14:25:20.379Z,5.90
2023-10-20T14:27:47.216Z,5.90
2023-10-20T14:30:13.898Z,5.90
2023-10-20T14:32:40.610Z,5.90
2023-10-20T14:35:07.868Z,5.90
2023-10-20T14:37:34.607Z,5.80
2023-10-20T14:40:01.232Z,5.80
2023-10-20T14:42:27.850Z,5.80
2023-10-20T14:44:54.566Z,5.80
2023-10-20T14:47:21.441Z,5.90
2023-10-20T14:49:48.177Z,5.80
2023-10-20T14:52:14.857Z,5.80
2023-10-20T14:54:42.203Z,5.80
2023-10-20T14:57:10.175Z,5.80
2023-10-20T14:59:37.313Z,5.80
2023-10-20T15:02:05.008Z,5.80
2023-10-20T15:04:35.164Z,5.80
2023-10-20T15:07:01.895Z,5.80
2023-10-20T15:09:28.576Z,5.80
2023-10-20T15:11:55.315Z,5.80
2023-10-20T15:17:31.830Z,5.80
2023-10-20T15:19:58.577Z,5.70
2023-10-20T15:22:25.231Z,5.70
2023-10-20T15:24:54.056Z,5.70
2023-10-20T15:27:20.785Z,5.70
2023-10-20T15:29:47.563Z,5.70
2023-10-20T15:32:16.475Z,5.70
2023-10-20T15:34:43.121Z,5.70
2023-10-20T15:37:09.812Z,5.70
2023-10-20T15:39:49.307Z,5.60
2023-10-20T15:42:19.553Z,5.60
2023-10-20T15:44:46.253Z,5.60
2023-10-20T15:47:12.897Z,5.60
2023-10-20T15:49:39.546Z,5.70
2023-10-20T15:52:06.199Z,5.60
2023-10-20T15:54:34.278Z,5.60
2023-10-20T15:57:00.946Z,5.60
2023-10-20T15:59:29.151Z,5.60
2023-10-20T16:01:55.796Z,5.70
2023-10-20T16:04:22.654Z,5.70
2023-10-20T16:06:49.473Z,5.70
2023-10-20T16:09:18.419Z,5.70
2023-10-20T16:11:46.505Z,5.70
2023-10-20T16:14:13.140Z,5.70
2023-10-20T16:16:39.893Z,5.70
2023-10-20T16:19:06.593Z,5.70
2023-10-20T16:21:33.477Z,5.70
2023-10-20T16:24:00.471Z,5.70
2023-10-20T16:26:27.450Z,5.80
2023-10-20T16:28:54.119Z,5.80
2023-10-20T16:31:20.739Z,5.80
2023-10-20T16:33:47.416Z,5.80
2023-10-20T16:36:14.080Z,5.80
2023-10-20T16:38:41.327Z,5.80
2023-10-20T16:41:08.213Z,5.80
2023-10-20T16:43:34.832Z,5.80
2023-10-20T16:46:07.540Z,5.80
2023-10-20T16:48:34.955Z,5.80
2023-10-20T16:51:01.872Z,5.80
2023-10-20T16:53:29.643Z,5.80
2023-10-20T16:56:00.289Z,5.80
2023-10-20T16:58:27.874Z,5.90
2023-10-20T17:01:00.652Z,5.90
2023-10-20T17:03:27.420Z,5.90
2023-10-20T17:05:54.139Z,5.90
2023-10-20T17:08:23.586Z,5.90
2023-10-20T17:10:51.144Z,5.90
2023-10-20T17:13:17.753Z,5.90
2023-10-20T17:15:57.079Z,6.00
2023-10-20T17:18:26.364Z,6.00
2023-10-20T17:21:01.042Z,6.00
2023-10-20T17:23:29.284Z,6.00
2023-10-20T17:25:57.542Z,6.10
